sensor_id;sensor_type;location;lat;lon;timestamp;P1;durP1;ratioP1;P2;durP2;ratioP2
56629;SDS011;42502;40.732;-74.254;2023-05-07T00:01:32;14.55;;;7.40;;
56629;SDS011;42502;40.732;-74.254;2023-05-07T00:03:33;9.88;;;5.82;;
56629;SDS011;42502;40.732;-74.254;2023-05-07T00:05:34;11.73;;;6.15;;
56629;SDS011;42502;40.732;-74.254;2023-05-07T00:07:34;9.32;;;4.75;;
56629;SDS011;42502;40.732;-74.254;2023-05-07T00:09:35;12.00;;;5.60;;
56629;SDS011;42502;40.732;-74.254;2023-05-07T00:11:36;10.02;;;5.90;;
56629;SDS011;42502;40.732;-74.254;2023-05-07T00:13:37;10.60;;;6.50;;
56629;SDS011;42502;40.732;-74.254;2023-05-07T00:15:38;10.35;;;5.75;;
56629;SDS011;42502;40.732;-74.254;2023-05-07T00:17:39;15.10;;;7.38;;
56629;SDS011;42502;40.732;-74.254;2023-05-07T00:19:39;10.05;;;7.40;;
56629;SDS011;42502;40.732;-74.254;2023-05-07T00:21:40;14.40;;;8.40;;
56629;SDS011;42502;40.732;-74.254;2023-05-07T00:23:41;15.30;;;8.57;;
56629;SDS011;42502;40.732;-74.254;2023-05-07T00:25:42;15.45;;;9.02;;
56629;SDS011;42502;40.732;-74.254;2023-05-07T00:27:43;14.43;;;9.00;;
56629;SDS011;42502;40.732;-74.254;2023-05-07T00:29:43;17.63;;;11.07;;
56629;SDS011;42502;40.732;-74.254;2023-05-07T00:31:45;12.30;;;10.95;;
56629;SDS011;42502;40.732;-74.254;2023-05-07T00:33:45;17.58;;;11.73;;
56629;SDS011;42502;40.732;-74.254;2023-05-07T00:35:46;18.10;;;12.80;;
56629;SDS011;42502;40.732;-74.254;2023-05-07T00:37:47;30.83;;;18.60;;
56629;SDS011;42502;40.732;-74.254;2023-05-07T00:39:49;25.63;;;17.58;;
56629;SDS011;42502;40.732;-74.254;2023-05-07T00:41:50;23.33;;;16.27;;
56629;SDS011;42502;40.732;-74.254;2023-05-07T00:43:51;23.10;;;15.63;;
56629;SDS011;42502;40.732;-74.254;2023-05-07T00:45:52;22.20;;;15.20;;
56629;SDS011;42502;40.732;-74.254;2023-05-07T00:48:03;23.27;;;15.75;;
56629;SDS011;42502;40.732;-74.254;2023-05-07T00:50:04;18.90;;;14.40;;
56629;SDS011;42502;40.732;-74.254;2023-05-07T00:52:09;22.02;;;15.50;;
56629;SDS011;42502;40.732;-74.254;2023-05-07T00:54:13;18.83;;;15.05;;
56629;SDS011;42502;40.732;-74.254;2023-05-07T00:56:14;22.98;;;15.70;;
56629;SDS011;42502;40.732;-74.254;2023-05-07T00:58:16;21.05;;;16.38;;
56629;SDS011;42502;40.732;-74.254;2023-05-07T01:00:17;23.70;;;17.67;;
56629;SDS011;42502;40.732;-74.254;2023-05-07T01:02:19;34.90;;;22.92;;
56629;SDS011;42502;40.732;-74.254;2023-05-07T01:04:20;27.38;;;20.67;;
56629;SDS011;42502;40.732;-74.254;2023-05-07T01:06:21;27.85;;;20.10;;
56629;SDS011;42502;40.732;-74.254;2023-05-07T01:08:25;27.88;;;20.38;;
56629;SDS011;42502;40.732;-74.254;2023-05-07T01:10:28;29.65;;;18.88;;
56629;SDS011;42502;40.732;-74.254;2023-05-07T01:12:30;28.83;;;18.90;;
56629;SDS011;42502;40.732;-74.254;2023-05-07T01:14:31;25.13;;;19.70;;
56629;SDS011;42502;40.732;-74.254;2023-05-07T01:16:33;26.50;;;19.45;;
56629;SDS011;42502;40.732;-74.254;2023-05-07T01:18:33;25.00;;;18.83;;
56629;SDS011;42502;40.732;-74.254;2023-05-07T01:20:34;25.75;;;19.48;;
56629;SDS011;42502;40.732;-74.254;2023-05-07T01:22:38;25.05;;;17.80;;
56629;SDS011;42502;40.732;-74.254;2023-05-07T01:24:39;24.25;;;17.90;;
56629;SDS011;42502;40.732;-74.254;2023-05-07T01:26:40;25.58;;;18.38;;
56629;SDS011;42502;40.732;-74.254;2023-05-07T01:28:42;22.63;;;18.85;;
56629;SDS011;42502;40.732;-74.254;2023-05-07T01:30:43;25.38;;;17.73;;
56629;SDS011;42502;40.732;-74.254;2023-05-07T01:33:01;25.52;;;17.23;;
56629;SDS011;42502;40.732;-74.254;2023-05-07T01:35:12;22.77;;;17.50;;
56629;SDS011;42502;40.732;-74.254;2023-05-07T01:37:17;23.85;;;16.98;;
56629;SDS011;42502;40.732;-74.254;2023-05-07T01:39:18;23.30;;;17.88;;
56629;SDS011;42502;40.732;-74.254;2023-05-07T01:41:19;25.75;;;17.20;;
56629;SDS011;42502;40.732;-74.254;2023-05-07T01:43:21;23.60;;;16.77;;
56629;SDS011;42502;40.732;-74.254;2023-05-07T01:45:22;22.33;;;16.80;;
56629;SDS011;42502;40.732;-74.254;2023-05-07T01:47:23;29.95;;;19.65;;
56629;SDS011;42502;40.732;-74.254;2023-05-07T01:49:25;25.95;;;17.52;;
56629;SDS011;42502;40.732;-74.254;2023-05-07T01:51:27;23.50;;;16.23;;
56629;SDS011;42502;40.732;-74.254;2023-05-07T01:53:28;19.73;;;16.13;;
56629;SDS011;42502;40.732;-74.254;2023-05-07T01:55:28;19.98;;;15.63;;
56629;SDS011;42502;40.732;-74.254;2023-05-07T01:57:29;24.40;;;15.88;;
56629;SDS011;42502;40.732;-74.254;2023-05-07T01:59:36;24.08;;;15.65;;
56629;SDS011;42502;40.732;-74.254;2023-05-07T02:01:37;18.52;;;14.80;;
56629;SDS011;42502;40.732;-74.254;2023-05-07T02:03:40;18.98;;;14.93;;
56629;SDS011;42502;40.732;-74.254;2023-05-07T02:05:41;21.38;;;15.13;;
56629;SDS011;42502;40.732;-74.254;2023-05-07T02:07:42;23.45;;;14.85;;
56629;SDS011;42502;40.732;-74.254;2023-05-07T02:09:43;19.65;;;14.80;;
56629;SDS011;42502;40.732;-74.254;2023-05-07T02:11:44;20.00;;;14.50;;
56629;SDS011;42502;40.732;-74.254;2023-05-07T02:13:45;20.25;;;13.88;;
56629;SDS011;42502;40.732;-74.254;2023-05-07T02:15:46;21.20;;;14.57;;
56629;SDS011;42502;40.732;-74.254;2023-05-07T02:18:00;18.88;;;12.68;;
56629;SDS011;42502;40.732;-74.254;2023-05-07T02:20:03;18.38;;;12.68;;
56629;SDS011;42502;40.732;-74.254;2023-05-07T02:22:04;19.75;;;12.68;;
56629;SDS011;42502;40.732;-74.254;2023-05-07T02:24:05;18.40;;;12.13;;
56629;SDS011;42502;40.732;-74.254;2023-05-07T02:26:06;17.45;;;11.93;;
56629;SDS011;42502;40.732;-74.254;2023-05-07T02:28:07;17.30;;;11.27;;
56629;SDS011;42502;40.732;-74.254;2023-05-07T02:30:08;17.42;;;10.90;;
56629;SDS011;42502;40.732;-74.254;2023-05-07T02:32:09;19.15;;;11.32;;
56629;SDS011;42502;40.732;-74.254;2023-05-07T02:34:10;15.23;;;10.45;;
56629;SDS011;42502;40.732;-74.254;2023-05-07T02:36:11;14.93;;;10.80;;
56629;SDS011;42502;40.732;-74.254;2023-05-07T02:38:12;16.73;;;10.93;;
56629;SDS011;42502;40.732;-74.254;2023-05-07T02:40:16;14.55;;;10.20;;
56629;SDS011;42502;40.732;-74.254;2023-05-07T02:42:17;14.07;;;9.82;;
56629;SDS011;42502;40.732;-74.254;2023-05-07T02:44:18;15.73;;;8.68;;
56629;SDS011;42502;40.732;-74.254;2023-05-07T02:46:19;16.90;;;9.50;;
56629;SDS011;42502;40.732;-74.254;2023-05-07T02:48:19;15.93;;;8.98;;
56629;SDS011;42502;40.732;-74.254;2023-05-07T02:50:20;12.20;;;7.80;;
56629;SDS011;42502;40.732;-74.254;2023-05-07T02:52:21;13.88;;;8.57;;
56629;SDS011;42502;40.732;-74.254;2023-05-07T02:54:22;15.15;;;8.88;;
56629;SDS011;42502;40.732;-74.254;2023-05-07T02:56:25;12.93;;;8.00;;
56629;SDS011;42502;40.732;-74.254;2023-05-07T02:58:27;12.48;;;7.97;;
56629;SDS011;42502;40.732;-74.254;2023-05-07T03:00:28;13.35;;;7.20;;
56629;SDS011;42502;40.732;-74.254;2023-05-07T03:02:29;12.80;;;7.68;;
56629;SDS011;42502;40.732;-74.254;2023-05-07T03:04:30;10.50;;;6.28;;
56629;SDS011;42502;40.732;-74.254;2023-05-07T03:06:30;9.02;;;6.07;;
56629;SDS011;42502;40.732;-74.254;2023-05-07T03:08:31;10.45;;;6.72;;
56629;SDS011;42502;40.732;-74.254;2023-05-07T03:10:33;9.48;;;5.70;;
56629;SDS011;42502;40.732;-74.254;2023-05-07T03:12:34;8.85;;;6.03;;
56629;SDS011;42502;40.732;-74.254;2023-05-07T03:14:34;8.60;;;5.60;;
56629;SDS011;42502;40.732;-74.254;2023-05-07T03:16:35;6.13;;;5.40;;
56629;SDS011;42502;40.732;-74.254;2023-05-07T03:18:36;10.15;;;4.88;;
56629;SDS011;42502;40.732;-74.254;2023-05-07T03:20:37;8.27;;;4.40;;
56629;SDS011;42502;40.732;-74.254;2023-05-07T03:22:38;7.70;;;4.60;;
56629;SDS011;42502;40.732;-74.254;2023-05-07T03:24:39;7.93;;;4.93;;
56629;SDS011;42502;40.732;-74.254;2023-05-07T03:26:40;7.32;;;4.43;;
56629;SDS011;42502;40.732;-74.254;2023-05-07T03:28:41;8.98;;;4.30;;
56629;SDS011;42502;40.732;-74.254;2023-05-07T03:30:42;7.80;;;4.63;;
56629;SDS011;42502;40.732;-74.254;2023-05-07T03:32:42;7.53;;;3.92;;
56629;SDS011;42502;40.732;-74.254;2023-05-07T03:34:43;7.20;;;3.22;;
56629;SDS011;42502;40.732;-74.254;2023-05-07T03:36:44;7.40;;;3.72;;
56629;SDS011;42502;40.732;-74.254;2023-05-07T03:38:45;7.78;;;3.88;;
56629;SDS011;42502;40.732;-74.254;2023-05-07T03:40:46;5.78;;;3.15;;
56629;SDS011;42502;40.732;-74.254;2023-05-07T03:42:46;5.15;;;3.05;;
56629;SDS011;42502;40.732;-74.254;2023-05-07T03:44:47;4.20;;;3.08;;
56629;SDS011;42502;40.732;-74.254;2023-05-07T03:46:48;4.18;;;2.53;;
56629;SDS011;42502;40.732;-74.254;2023-05-07T03:48:49;5.38;;;2.63;;
56629;SDS011;42502;40.732;-74.254;2023-05-07T03:50:50;5.88;;;2.58;;
56629;SDS011;42502;40.732;-74.254;2023-05-07T03:52:50;4.55;;;2.45;;
56629;SDS011;42502;40.732;-74.254;2023-05-07T03:54:52;2.90;;;2.15;;
56629;SDS011;42502;40.732;-74.254;2023-05-07T03:56:53;4.07;;;2.28;;
56629;SDS011;42502;40.732;-74.254;2023-05-07T03:58:54;3.83;;;2.08;;
56629;SDS011;42502;40.732;-74.254;2023-05-07T04:00:55;3.28;;;1.83;;
56629;SDS011;42502;40.732;-74.254;2023-05-07T04:02:56;2.65;;;1.70;;
56629;SDS011;42502;40.732;-74.254;2023-05-07T04:04:57;3.53;;;1.77;;
56629;SDS011;42502;40.732;-74.254;2023-05-07T04:06:57;3.80;;;1.63;;
56629;SDS011;42502;40.732;-74.254;2023-05-07T04:08:59;3.38;;;1.35;;
56629;SDS011;42502;40.732;-74.254;2023-05-07T04:11:00;2.45;;;1.20;;
56629;SDS011;42502;40.732;-74.254;2023-05-07T04:13:01;2.95;;;1.60;;
56629;SDS011;42502;40.732;-74.254;2023-05-07T04:15:01;4.93;;;1.30;;
56629;SDS011;42502;40.732;-74.254;2023-05-07T04:17:02;2.53;;;1.20;;
56629;SDS011;42502;40.732;-74.254;2023-05-07T04:19:03;5.32;;;1.30;;
56629;SDS011;42502;40.732;-74.254;2023-05-07T04:21:04;3.35;;;1.20;;
56629;SDS011;42502;40.732;-74.254;2023-05-07T04:23:06;2.38;;;0.90;;
56629;SDS011;42502;40.732;-74.254;2023-05-07T04:25:07;2.90;;;1.30;;
56629;SDS011;42502;40.732;-74.254;2023-05-07T04:27:12;2.00;;;1.10;;
56629;SDS011;42502;40.732;-74.254;2023-05-07T04:29:12;1.38;;;0.88;;
56629;SDS011;42502;40.732;-74.254;2023-05-07T04:31:13;3.40;;;1.00;;
56629;SDS011;42502;40.732;-74.254;2023-05-07T04:33:14;1.08;;;0.90;;
56629;SDS011;42502;40.732;-74.254;2023-05-07T04:35:17;1.40;;;0.80;;
56629;SDS011;42502;40.732;-74.254;2023-05-07T04:37:17;1.83;;;0.93;;
56629;SDS011;42502;40.732;-74.254;2023-05-07T04:39:18;2.97;;;0.80;;
56629;SDS011;42502;40.732;-74.254;2023-05-07T04:41:19;1.50;;;0.77;;
56629;SDS011;42502;40.732;-74.254;2023-05-07T04:43:20;1.80;;;0.80;;
56629;SDS011;42502;40.732;-74.254;2023-05-07T04:45:21;3.90;;;0.85;;
56629;SDS011;42502;40.732;-74.254;2023-05-07T04:47:22;1.65;;;0.70;;
56629;SDS011;42502;40.732;-74.254;2023-05-07T04:49:23;1.95;;;0.73;;
56629;SDS011;42502;40.732;-74.254;2023-05-07T04:51:24;0.85;;;0.70;;
56629;SDS011;42502;40.732;-74.254;2023-05-07T04:53:25;0.70;;;0.55;;
56629;SDS011;42502;40.732;-74.254;2023-05-07T04:55:26;1.70;;;0.80;;
56629;SDS011;42502;40.732;-74.254;2023-05-07T04:57:29;1.52;;;0.70;;
56629;SDS011;42502;40.732;-74.254;2023-05-07T04:59:30;1.23;;;0.60;;
56629;SDS011;42502;40.732;-74.254;2023-05-07T05:01:32;1.77;;;0.60;;
56629;SDS011;42502;40.732;-74.254;2023-05-07T05:03:33;0.90;;;0.60;;
56629;SDS011;42502;40.732;-74.254;2023-05-07T05:05:34;0.82;;;0.60;;
56629;SDS011;42502;40.732;-74.254;2023-05-07T05:07:34;2.13;;;0.60;;
56629;SDS011;42502;40.732;-74.254;2023-05-07T05:09:35;0.80;;;0.60;;
56629;SDS011;42502;40.732;-74.254;2023-05-07T05:11:36;2.35;;;0.70;;
56629;SDS011;42502;40.732;-74.254;2023-05-07T05:13:37;1.15;;;0.55;;
56629;SDS011;42502;40.732;-74.254;2023-05-07T05:15:38;1.48;;;0.60;;
56629;SDS011;42502;40.732;-74.254;2023-05-07T05:17:39;0.90;;;0.60;;
56629;SDS011;42502;40.732;-74.254;2023-05-07T05:19:40;1.17;;;0.57;;
56629;SDS011;42502;40.732;-74.254;2023-05-07T05:21:41;1.67;;;0.70;;
56629;SDS011;42502;40.732;-74.254;2023-05-07T05:23:42;1.00;;;0.60;;
56629;SDS011;42502;40.732;-74.254;2023-05-07T05:25:42;0.70;;;0.55;;
56629;SDS011;42502;40.732;-74.254;2023-05-07T05:27:43;1.48;;;0.50;;
56629;SDS011;42502;40.732;-74.254;2023-05-07T05:29:44;0.90;;;0.60;;
56629;SDS011;42502;40.732;-74.254;2023-05-07T05:31:45;1.33;;;0.60;;
56629;SDS011;42502;40.732;-74.254;2023-05-07T05:33:45;0.70;;;0.50;;
56629;SDS011;42502;40.732;-74.254;2023-05-07T05:35:46;0.75;;;0.50;;
56629;SDS011;42502;40.732;-74.254;2023-05-07T05:37:47;1.38;;;0.50;;
56629;SDS011;42502;40.732;-74.254;2023-05-07T05:39:48;0.95;;;0.50;;
56629;SDS011;42502;40.732;-74.254;2023-05-07T05:41:49;0.90;;;0.50;;
56629;SDS011;42502;40.732;-74.254;2023-05-07T05:43:50;0.70;;;0.50;;
56629;SDS011;42502;40.732;-74.254;2023-05-07T05:45:50;0.60;;;0.43;;
56629;SDS011;42502;40.732;-74.254;2023-05-07T05:47:51;0.68;;;0.50;;
56629;SDS011;42502;40.732;-74.254;2023-05-07T05:49:52;0.70;;;0.50;;
56629;SDS011;42502;40.732;-74.254;2023-05-07T05:51:53;0.80;;;0.50;;
56629;SDS011;42502;40.732;-74.254;2023-05-07T05:53:54;1.58;;;0.50;;
56629;SDS011;42502;40.732;-74.254;2023-05-07T05:55:55;1.00;;;0.40;;
56629;SDS011;42502;40.732;-74.254;2023-05-07T05:57:55;0.80;;;0.40;;
56629;SDS011;42502;40.732;-74.254;2023-05-07T05:59:56;0.57;;;0.40;;
56629;SDS011;42502;40.732;-74.254;2023-05-07T06:01:57;0.70;;;0.40;;
56629;SDS011;42502;40.732;-74.254;2023-05-07T06:03:58;0.55;;;0.40;;
56629;SDS011;42502;40.732;-74.254;2023-05-07T06:05:59;0.70;;;0.50;;
56629;SDS011;42502;40.732;-74.254;2023-05-07T06:08:03;0.63;;;0.40;;
56629;SDS011;42502;40.732;-74.254;2023-05-07T06:10:04;0.45;;;0.40;;
56629;SDS011;42502;40.732;-74.254;2023-05-07T06:12:05;1.58;;;0.40;;
56629;SDS011;42502;40.732;-74.254;2023-05-07T06:14:06;1.58;;;0.40;;
56629;SDS011;42502;40.732;-74.254;2023-05-07T06:16:07;0.60;;;0.35;;
56629;SDS011;42502;40.732;-74.254;2023-05-07T06:18:08;0.80;;;0.40;;
56629;SDS011;42502;40.732;-74.254;2023-05-07T06:20:09;1.35;;;0.30;;
56629;SDS011;42502;40.732;-74.254;2023-05-07T06:22:10;0.93;;;0.40;;
56629;SDS011;42502;40.732;-74.254;2023-05-07T06:24:10;0.80;;;0.40;;
56629;SDS011;42502;40.732;-74.254;2023-05-07T06:26:11;0.70;;;0.35;;
56629;SDS011;42502;40.732;-74.254;2023-05-07T06:28:12;1.15;;;0.40;;
56629;SDS011;42502;40.732;-74.254;2023-05-07T06:30:13;0.40;;;0.35;;
56629;SDS011;42502;40.732;-74.254;2023-05-07T06:32:14;0.43;;;0.30;;
56629;SDS011;42502;40.732;-74.254;2023-05-07T06:34:15;0.95;;;0.40;;
56629;SDS011;42502;40.732;-74.254;2023-05-07T06:36:16;0.90;;;0.45;;
56629;SDS011;42502;40.732;-74.254;2023-05-07T06:38:17;0.93;;;0.40;;
56629;SDS011;42502;40.732;-74.254;2023-05-07T06:40:18;0.40;;;0.40;;
56629;SDS011;42502;40.732;-74.254;2023-05-07T06:42:19;0.50;;;0.40;;
56629;SDS011;42502;40.732;-74.254;2023-05-07T06:44:20;0.30;;;0.30;;
56629;SDS011;42502;40.732;-74.254;2023-05-07T06:46:20;0.70;;;0.40;;
56629;SDS011;42502;40.732;-74.254;2023-05-07T06:48:21;0.57;;;0.40;;
56629;SDS011;42502;40.732;-74.254;2023-05-07T06:50:22;0.80;;;0.30;;
56629;SDS011;42502;40.732;-74.254;2023-05-07T06:52:23;0.50;;;0.40;;
56629;SDS011;42502;40.732;-74.254;2023-05-07T06:54:24;0.60;;;0.30;;
56629;SDS011;42502;40.732;-74.254;2023-05-07T06:56:24;0.88;;;0.30;;
56629;SDS011;42502;40.732;-74.254;2023-05-07T06:58:25;0.50;;;0.30;;
56629;SDS011;42502;40.732;-74.254;2023-05-07T07:00:27;0.38;;;0.30;;
56629;SDS011;42502;40.732;-74.254;2023-05-07T07:02:27;1.50;;;0.35;;
56629;SDS011;42502;40.732;-74.254;2023-05-07T07:04:28;0.38;;;0.30;;
56629;SDS011;42502;40.732;-74.254;2023-05-07T07:06:30;0.55;;;0.38;;
56629;SDS011;42502;40.732;-74.254;2023-05-07T07:08:31;0.43;;;0.35;;
56629;SDS011;42502;40.732;-74.254;2023-05-07T07:10:32;0.38;;;0.30;;
56629;SDS011;42502;40.732;-74.254;2023-05-07T07:12:33;0.30;;;0.30;;
56629;SDS011;42502;40.732;-74.254;2023-05-07T07:14:34;0.40;;;0.30;;
56629;SDS011;42502;40.732;-74.254;2023-05-07T07:16:35;0.60;;;0.38;;
56629;SDS011;42502;40.732;-74.254;2023-05-07T07:18:36;0.52;;;0.32;;
56629;SDS011;42502;40.732;-74.254;2023-05-07T07:20:37;0.40;;;0.35;;
56629;SDS011;42502;40.732;-74.254;2023-05-07T07:22:37;0.60;;;0.30;;
56629;SDS011;42502;40.732;-74.254;2023-05-07T07:24:38;0.45;;;0.30;;
56629;SDS011;42502;40.732;-74.254;2023-05-07T07:26:39;0.30;;;0.30;;
56629;SDS011;42502;40.732;-74.254;2023-05-07T07:28:45;0.40;;;0.20;;
56629;SDS011;42502;40.732;-74.254;2023-05-07T07:30:46;0.50;;;0.30;;
56629;SDS011;42502;40.732;-74.254;2023-05-07T07:32:47;1.10;;;0.35;;
56629;SDS011;42502;40.732;-74.254;2023-05-07T07:34:48;0.45;;;0.30;;
56629;SDS011;42502;40.732;-74.254;2023-05-07T07:36:49;0.38;;;0.32;;
56629;SDS011;42502;40.732;-74.254;2023-05-07T07:38:49;0.52;;;0.30;;
56629;SDS011;42502;40.732;-74.254;2023-05-07T07:40:50;0.20;;;0.20;;
56629;SDS011;42502;40.732;-74.254;2023-05-07T07:42:53;0.40;;;0.30;;
56629;SDS011;42502;40.732;-74.254;2023-05-07T07:44:54;1.35;;;0.40;;
56629;SDS011;42502;40.732;-74.254;2023-05-07T07:46:55;0.30;;;0.30;;
56629;SDS011;42502;40.732;-74.254;2023-05-07T07:48:56;0.43;;;0.20;;
56629;SDS011;42502;40.732;-74.254;2023-05-07T07:50:59;0.50;;;0.22;;
56629;SDS011;42502;40.732;-74.254;2023-05-07T07:52:59;0.30;;;0.20;;
56629;SDS011;42502;40.732;-74.254;2023-05-07T07:55:00;0.30;;;0.30;;
56629;SDS011;42502;40.732;-74.254;2023-05-07T07:57:02;0.30;;;0.30;;
56629;SDS011;42502;40.732;-74.254;2023-05-07T07:59:03;0.40;;;0.20;;
56629;SDS011;42502;40.732;-74.254;2023-05-07T08:01:03;0.60;;;0.30;;
56629;SDS011;42502;40.732;-74.254;2023-05-07T08:03:04;0.30;;;0.20;;
56629;SDS011;42502;40.732;-74.254;2023-05-07T08:05:07;0.32;;;0.30;;
56629;SDS011;42502;40.732;-74.254;2023-05-07T08:07:09;0.30;;;0.28;;
56629;SDS011;42502;40.732;-74.254;2023-05-07T08:09:10;0.38;;;0.30;;
56629;SDS011;42502;40.732;-74.254;2023-05-07T08:11:11;0.20;;;0.20;;
56629;SDS011;42502;40.732;-74.254;2023-05-07T08:13:12;0.30;;;0.30;;
56629;SDS011;42502;40.732;-74.254;2023-05-07T08:15:13;0.30;;;0.30;;
56629;SDS011;42502;40.732;-74.254;2023-05-07T08:17:13;0.30;;;0.20;;
56629;SDS011;42502;40.732;-74.254;2023-05-07T08:19:16;0.30;;;0.30;;
56629;SDS011;42502;40.732;-74.254;2023-05-07T08:21:16;0.30;;;0.30;;
56629;SDS011;42502;40.732;-74.254;2023-05-07T08:23:17;0.60;;;0.20;;
56629;SDS011;42502;40.732;-74.254;2023-05-07T08:25:18;0.30;;;0.22;;
56629;SDS011;42502;40.732;-74.254;2023-05-07T08:27:19;1.55;;;0.20;;
56629;SDS011;42502;40.732;-74.254;2023-05-07T08:29:20;0.43;;;0.20;;
56629;SDS011;42502;40.732;-74.254;2023-05-07T08:31:21;0.30;;;0.20;;
56629;SDS011;42502;40.732;-74.254;2023-05-07T08:33:22;0.20;;;0.20;;
56629;SDS011;42502;40.732;-74.254;2023-05-07T08:35:23;0.40;;;0.28;;
56629;SDS011;42502;40.732;-74.254;2023-05-07T08:37:24;0.30;;;0.30;;
56629;SDS011;42502;40.732;-74.254;2023-05-07T08:39:24;0.20;;;0.20;;
56629;SDS011;42502;40.732;-74.254;2023-05-07T08:41:25;0.28;;;0.20;;
56629;SDS011;42502;40.732;-74.254;2023-05-07T08:43:29;0.22;;;0.17;;
56629;SDS011;42502;40.732;-74.254;2023-05-07T08:45:35;0.25;;;0.20;;
56629;SDS011;42502;40.732;-74.254;2023-05-07T08:47:43;0.50;;;0.20;;
56629;SDS011;42502;40.732;-74.254;2023-05-07T08:49:47;0.20;;;0.20;;
56629;SDS011;42502;40.732;-74.254;2023-05-07T08:51:49;0.50;;;0.30;;
56629;SDS011;42502;40.732;-74.254;2023-05-07T08:53:51;0.20;;;0.20;;
56629;SDS011;42502;40.732;-74.254;2023-05-07T08:55:52;0.50;;;0.20;;
56629;SDS011;42502;40.732;-74.254;2023-05-07T08:57:53;1.77;;;0.20;;
56629;SDS011;42502;40.732;-74.254;2023-05-07T08:59:54;0.35;;;0.25;;
56629;SDS011;42502;40.732;-74.254;2023-05-07T09:01:55;0.65;;;0.20;;
56629;SDS011;42502;40.732;-74.254;2023-05-07T09:03:56;0.20;;;0.15;;
56629;SDS011;42502;40.732;-74.254;2023-05-07T09:05:58;0.38;;;0.30;;
56629;SDS011;42502;40.732;-74.254;2023-05-07T09:07:59;0.22;;;0.20;;
56629;SDS011;42502;40.732;-74.254;2023-05-07T09:10:02;1.00;;;0.20;;
56629;SDS011;42502;40.732;-74.254;2023-05-07T09:12:04;0.40;;;0.20;;
56629;SDS011;42502;40.732;-74.254;2023-05-07T09:14:05;0.22;;;0.20;;
56629;SDS011;42502;40.732;-74.254;2023-05-07T09:16:10;0.22;;;0.20;;
56629;SDS011;42502;40.732;-74.254;2023-05-07T09:18:12;0.80;;;0.20;;
56629;SDS011;42502;40.732;-74.254;2023-05-07T09:20:13;0.50;;;0.20;;
56629;SDS011;42502;40.732;-74.254;2023-05-07T09:22:14;0.20;;;0.20;;
56629;SDS011;42502;40.732;-74.254;2023-05-07T09:24:15;0.10;;;0.10;;
56629;SDS011;42502;40.732;-74.254;2023-05-07T09:26:17;0.52;;;0.20;;
56629;SDS011;42502;40.732;-74.254;2023-05-07T09:28:18;0.20;;;0.20;;
56629;SDS011;42502;40.732;-74.254;2023-05-07T09:30:19;0.30;;;0.20;;
56629;SDS011;42502;40.732;-74.254;2023-05-07T09:32:20;0.20;;;0.20;;
56629;SDS011;42502;40.732;-74.254;2023-05-07T09:34:21;0.35;;;0.20;;
56629;SDS011;42502;40.732;-74.254;2023-05-07T09:36:22;0.20;;;0.15;;
56629;SDS011;42502;40.732;-74.254;2023-05-07T09:38:23;0.20;;;0.20;;
56629;SDS011;42502;40.732;-74.254;2023-05-07T09:40:25;0.60;;;0.20;;
56629;SDS011;42502;40.732;-74.254;2023-05-07T09:42:27;0.40;;;0.20;;
56629;SDS011;42502;40.732;-74.254;2023-05-07T09:44:29;0.28;;;0.20;;
56629;SDS011;42502;40.732;-74.254;2023-05-07T09:46:31;0.30;;;0.20;;
56629;SDS011;42502;40.732;-74.254;2023-05-07T09:48:36;0.38;;;0.25;;
56629;SDS011;42502;40.732;-74.254;2023-05-07T09:50:48;0.70;;;0.20;;
56629;SDS011;42502;40.732;-74.254;2023-05-07T09:52:51;0.17;;;0.10;;
56629;SDS011;42502;40.732;-74.254;2023-05-07T09:54:53;0.20;;;0.10;;
56629;SDS011;42502;40.732;-74.254;2023-05-07T09:56:56;0.17;;;0.17;;
56629;SDS011;42502;40.732;-74.254;2023-05-07T09:58:59;0.10;;;0.10;;
56629;SDS011;42502;40.732;-74.254;2023-05-07T10:01:00;0.50;;;0.22;;
56629;SDS011;42502;40.732;-74.254;2023-05-07T10:03:03;0.25;;;0.10;;
56629;SDS011;42502;40.732;-74.254;2023-05-07T10:05:05;0.38;;;0.20;;
56629;SDS011;42502;40.732;-74.254;2023-05-07T10:07:07;0.20;;;0.13;;
56629;SDS011;42502;40.732;-74.254;2023-05-07T10:09:09;0.30;;;0.20;;
56629;SDS011;42502;40.732;-74.254;2023-05-07T10:11:11;0.20;;;0.20;;
56629;SDS011;42502;40.732;-74.254;2023-05-07T10:13:12;0.22;;;0.20;;
56629;SDS011;42502;40.732;-74.254;2023-05-07T10:15:13;0.30;;;0.20;;
56629;SDS011;42502;40.732;-74.254;2023-05-07T10:17:15;0.20;;;0.10;;
56629;SDS011;42502;40.732;-74.254;2023-05-07T10:19:16;0.22;;;0.20;;
56629;SDS011;42502;40.732;-74.254;2023-05-07T10:21:22;0.20;;;0.20;;
56629;SDS011;42502;40.732;-74.254;2023-05-07T10:23:23;0.40;;;0.20;;
56629;SDS011;42502;40.732;-74.254;2023-05-07T10:25:28;0.25;;;0.20;;
56629;SDS011;42502;40.732;-74.254;2023-05-07T10:27:31;0.30;;;0.20;;
56629;SDS011;42502;40.732;-74.254;2023-05-07T10:32:37;1.05;;;0.20;;
56629;SDS011;42502;40.732;-74.254;2023-05-07T10:34:45;1.63;;;0.30;;
56629;SDS011;42502;40.732;-74.254;2023-05-07T10:36:49;0.65;;;0.10;;
56629;SDS011;42502;40.732;-74.254;2023-05-07T10:38:51;1.20;;;0.22;;
56629;SDS011;42502;40.732;-74.254;2023-05-07T10:40:53;1.05;;;0.20;;
56629;SDS011;42502;40.732;-74.254;2023-05-07T10:42:55;0.28;;;0.13;;
56629;SDS011;42502;40.732;-74.254;2023-05-07T10:44:56;1.27;;;0.20;;
56629;SDS011;42502;40.732;-74.254;2023-05-07T10:47:13;0.40;;;0.20;;
56629;SDS011;42502;40.732;-74.254;2023-05-07T10:49:16;0.20;;;0.10;;
56629;SDS011;42502;40.732;-74.254;2023-05-07T10:51:18;1.45;;;0.20;;
56629;SDS011;42502;40.732;-74.254;2023-05-07T10:53:21;0.20;;;0.20;;
56629;SDS011;42502;40.732;-74.254;2023-05-07T10:55:24;1.10;;;0.20;;
56629;SDS011;42502;40.732;-74.254;2023-05-07T10:59:33;0.57;;;0.20;;
56629;SDS011;42502;40.732;-74.254;2023-05-07T11:01:52;0.88;;;0.20;;
56629;SDS011;42502;40.732;-74.254;2023-05-07T11:04:12;0.43;;;0.30;;
56629;SDS011;42502;40.732;-74.254;2023-05-07T11:06:15;1.10;;;0.20;;
56629;SDS011;42502;40.732;-74.254;2023-05-07T11:08:16;0.57;;;0.22;;
56629;SDS011;42502;40.732;-74.254;2023-05-07T11:10:17;0.77;;;0.30;;
56629;SDS011;42502;40.732;-74.254;2023-05-07T11:16:42;1.70;;;0.20;;
56629;SDS011;42502;40.732;-74.254;2023-05-07T11:18:48;1.42;;;0.20;;
56629;SDS011;42502;40.732;-74.254;2023-05-07T11:20:51;0.85;;;0.20;;
56629;SDS011;42502;40.732;-74.254;2023-05-07T11:22:57;1.13;;;0.20;;
56629;SDS011;42502;40.732;-74.254;2023-05-07T11:25:01;0.65;;;0.20;;
56629;SDS011;42502;40.732;-74.254;2023-05-07T11:27:06;4.32;;;0.25;;
56629;SDS011;42502;40.732;-74.254;2023-05-07T11:29:11;1.85;;;0.30;;
56629;SDS011;42502;40.732;-74.254;2023-05-07T11:31:14;0.55;;;0.20;;
56629;SDS011;42502;40.732;-74.254;2023-05-07T11:33:22;1.48;;;0.20;;
56629;SDS011;42502;40.732;-74.254;2023-05-07T11:35:27;0.52;;;0.20;;
56629;SDS011;42502;40.732;-74.254;2023-05-07T11:37:28;1.13;;;0.28;;
56629;SDS011;42502;40.732;-74.254;2023-05-07T11:39:31;1.10;;;0.22;;
56629;SDS011;42502;40.732;-74.254;2023-05-07T11:43:49;1.42;;;0.20;;
56629;SDS011;42502;40.732;-74.254;2023-05-07T11:45:55;1.58;;;0.20;;
56629;SDS011;42502;40.732;-74.254;2023-05-07T11:48:07;0.60;;;0.20;;
56629;SDS011;42502;40.732;-74.254;2023-05-07T11:50:08;2.03;;;0.20;;
56629;SDS011;42502;40.732;-74.254;2023-05-07T11:52:10;0.82;;;0.20;;
56629;SDS011;42502;40.732;-74.254;2023-05-07T11:54:14;2.70;;;0.30;;
56629;SDS011;42502;40.732;-74.254;2023-05-07T11:56:16;0.95;;;0.20;;
56629;SDS011;42502;40.732;-74.254;2023-05-07T11:58:22;0.88;;;0.30;;
56629;SDS011;42502;40.732;-74.254;2023-05-07T12:00:24;1.73;;;0.30;;